Time;durP1;ratioP1;P1;durP2;ratioP2;P2;SDS_P1;SDS_P2;PMS_P1;PMS_P2;Temp;Humidity;BMP_temperature;BMP_pressure;BME280_temperature;BME280_humidity;BME280_pressure;Samples;Min_cycle;Max_cycle;Signal;HPM_P1;HPM_P2
2023/03/26 00:02:22;;;;;;;9.03;3.47;;;8.00;99.90;;;;;;4975094;28;20517;-70
2023/03/26 00:04:52;;;;;;;12.13;3.30;;;8.00;99.90;;;;;;4979538;28;20602;-69
2023/03/26 00:07:20;;;;;;;9.27;3.23;;;8.00;99.90;;;;;;4977093;28;20484;-69
2023/03/26 00:09:47;;;;;;;10.37;3.53;;;8.00;99.90;;;;;;4981958;28;20497;-70
2023/03/26 00:12:15;;;;;;;10.83;3.57;;;8.00;99.90;;;;;;4972650;28;20493;-70
2023/03/26 00:14:43;;;;;;;9.10;3.43;;;8.00;99.90;;;;;;4982231;28;20480;-69
2023/03/26 00:17:11;;;;;;;9.03;3.30;;;8.00;99.90;;;;;;4978631;28;20568;-70
2023/03/26 00:19:41;;;;;;;7.43;3.33;;;8.00;99.90;;;;;;4979355;28;20489;-70
2023/03/26 00:22:12;;;;;;;11.93;3.40;;;8.00;99.90;;;;;;4982060;28;20866;-70
2023/03/26 00:24:44;;;;;;;9.37;3.40;;;8.00;99.90;;;;;;4981790;28;20496;-69
2023/03/26 00:27:13;;;;;;;7.73;3.60;;;8.00;99.90;;;;;;4984731;28;20527;-70
2023/03/26 00:29:41;;;;;;;7.30;2.97;;;7.90;99.90;;;;;;4988907;28;21616;-69
2023/03/26 00:32:09;;;;;;;4.80;2.83;;;7.90;99.90;;;;;;4986034;28;20485;-69
2023/03/26 00:34:40;;;;;;;7.67;3.60;;;7.90;99.90;;;;;;4991454;28;20993;-70
2023/03/26 00:37:11;;;;;;;6.87;3.33;;;7.90;99.90;;;;;;4979565;28;20469;-68
2023/03/26 00:39:39;;;;;;;10.17;4.10;;;7.90;99.90;;;;;;4987889;28;20583;-69
2023/03/26 00:42:07;;;;;;;6.97;3.10;;;7.90;99.90;;;;;;4985442;28;20583;-68
2023/03/26 00:44:35;;;;;;;5.00;2.70;;;7.90;99.90;;;;;;4988856;28;20480;-69
2023/03/26 00:47:03;;;;;;;7.73;3.53;;;7.90;99.90;;;;;;4983968;28;20499;-69
2023/03/26 00:49:31;;;;;;;6.57;3.10;;;7.90;99.90;;;;;;4985186;28;20489;-69
2023/03/26 00:52:01;;;;;;;8.47;3.50;;;7.90;99.90;;;;;;4987432;28;20477;-69
2023/03/26 00:54:31;;;;;;;8.50;3.67;;;7.90;99.90;;;;;;4988790;28;20469;-69
2023/03/26 00:56:59;;;;;;;8.77;3.57;;;8.00;99.90;;;;;;4979018;28;21432;-73
2023/03/26 00:59:29;;;;;;;5.97;3.10;;;8.00;99.90;;;;;;4978072;28;20507;-71
2023/03/26 01:01:57;;;;;;;4.77;2.63;;;8.00;99.90;;;;;;4976857;28;20496;-67
2023/03/26 01:04:29;;;;;;;5.47;2.70;;;7.90;99.90;;;;;;4979098;28;20924;-69
2023/03/26 01:07:01;;;;;;;6.50;2.20;;;7.90;99.90;;;;;;4970989;28;20527;-70
2023/03/26 01:09:34;;;;;;;7.10;2.93;;;7.90;99.90;;;;;;4981017;28;20859;-68
2023/03/26 01:12:05;;;;;;;3.90;2.40;;;7.90;99.90;;;;;;4976753;28;21849;-69
2023/03/26 01:14:34;;;;;;;4.70;2.57;;;7.80;99.90;;;;;;4976258;28;20477;-69
2023/03/26 01:17:03;;;;;;;6.90;2.40;;;7.80;99.90;;;;;;4978014;28;20473;-69
2023/03/26 01:19:37;;;;;;;6.57;2.80;;;7.80;99.90;;;;;;4977063;28;21037;-70
2023/03/26 01:22:08;;;;;;;3.90;2.60;;;7.70;99.90;;;;;;4980320;28;20488;-68
2023/03/26 01:24:38;;;;;;;3.87;2.23;;;7.70;99.90;;;;;;4976505;28;20993;-68
2023/03/26 01:27:17;;;;;;;2.70;2.10;;;7.70;99.90;;;;;;4982547;28;20577;-69
2023/03/26 01:29:52;;;;;;;5.93;2.60;;;7.60;99.90;;;;;;4981769;28;20804;-67
2023/03/26 01:32:30;;;;;;;3.83;2.03;;;7.60;99.90;;;;;;4975517;28;20500;-68
2023/03/26 01:35:12;;;;;;;5.33;1.80;;;7.50;99.90;;;;;;4983929;28;21056;-69
2023/03/26 01:37:51;;;;;;;2.27;1.67;;;7.50;99.90;;;;;;4979422;28;20495;-69
2023/03/26 01:40:28;;;;;;;4.93;1.70;;;7.50;99.90;;;;;;4974852;28;21132;-70
2023/03/26 01:43:02;;;;;;;4.47;2.27;;;7.40;99.90;;;;;;4982406;28;20495;-69
2023/03/26 01:45:33;;;;;;;4.27;2.10;;;7.40;99.90;;;;;;4987023;28;20840;-67
2023/03/26 01:48:02;;;;;;;6.07;1.80;;;7.40;99.90;;;;;;4973216;28;20488;-68
2023/03/26 01:50:30;;;;;;;8.10;2.70;;;7.40;99.90;;;;;;4978042;28;21206;-69
2023/03/26 01:52:58;;;;;;;7.10;2.20;;;7.40;99.90;;;;;;4976736;28;20484;-69
2023/03/26 01:55:35;;;;;;;5.30;2.13;;;7.30;99.90;;;;;;4980524;28;20480;-69
2023/03/26 01:58:12;;;;;;;6.83;2.73;;;7.30;99.90;;;;;;4986750;28;20476;-69
2023/03/26 02:00:48;;;;;;;7.43;2.20;;;7.30;99.90;;;;;;4985496;28;20501;-69
2023/03/26 02:03:25;;;;;;;8.20;2.70;;;7.30;99.90;;;;;;4974498;28;20496;-69
2023/03/26 02:05:57;;;;;;;9.50;2.93;;;7.30;99.90;;;;;;4981141;28;20495;-69
2023/03/26 02:08:34;;;;;;;7.93;2.40;;;7.30;99.90;;;;;;4980853;28;20815;-68
2023/03/26 02:11:09;;;;;;;6.70;2.73;;;7.30;99.90;;;;;;4981279;28;20909;-71
2023/03/26 02:13:38;;;;;;;5.33;2.40;;;7.20;99.90;;;;;;4985229;28;20495;-74
2023/03/26 02:16:10;;;;;;;6.93;2.40;;;7.20;99.90;;;;;;4984968;28;20464;-69
2023/03/26 02:18:38;;;;;;;5.00;2.50;;;7.20;99.90;;;;;;4979359;28;21080;-73
2023/03/26 02:21:11;;;;;;;7.57;2.43;;;7.20;99.90;;;;;;4977121;28;21121;-69
2023/03/26 02:23:39;;;;;;;5.50;2.57;;;7.20;99.90;;;;;;4988162;28;21033;-70
2023/03/26 02:26:10;;;;;;;5.90;2.50;;;7.20;99.90;;;;;;4989443;28;21033;-70
2023/03/26 02:28:38;;;;;;;9.50;3.20;;;7.20;99.90;;;;;;4986053;28;20469;-69
2023/03/26 02:31:09;;;;;;;5.33;2.23;;;7.20;99.90;;;;;;4987408;28;20489;-70
2023/03/26 02:33:38;;;;;;;5.03;2.40;;;7.20;99.90;;;;;;4992751;28;20481;-74
2023/03/26 02:36:07;;;;;;;7.10;2.47;;;7.20;99.90;;;;;;4986897;28;20476;-70
2023/03/26 02:38:35;;;;;;;9.27;2.80;;;7.20;99.90;;;;;;4987593;28;20513;-69
2023/03/26 02:41:04;;;;;;;5.93;2.77;;;7.20;99.90;;;;;;4990346;28;20520;-69
2023/03/26 02:43:33;;;;;;;6.60;2.13;;;7.20;99.90;;;;;;4987314;28;20497;-69
2023/03/26 02:46:01;;;;;;;9.27;2.57;;;7.20;99.90;;;;;;4984580;28;20548;-69
2023/03/26 02:48:30;;;;;;;8.13;2.47;;;7.20;99.90;;;;;;4988553;28;20813;-70
2023/03/26 02:50:58;;;;;;;9.40;2.20;;;7.20;99.90;;;;;;4981906;28;20493;-68
2023/03/26 02:53:28;;;;;;;9.43;2.50;;;7.20;99.90;;;;;;4989565;28;20496;-69
2023/03/26 02:55:56;;;;;;;6.23;1.87;;;7.20;99.90;;;;;;4985654;28;21747;-70
2023/03/26 02:58:25;;;;;;;2.97;1.60;;;7.20;99.90;;;;;;4980850;28;20473;-69
2023/03/26 03:00:54;;;;;;;9.67;2.57;;;7.20;99.90;;;;;;4984261;28;20989;-69
2023/03/26 03:03:23;;;;;;;6.77;1.97;;;7.20;99.90;;;;;;4979481;28;20595;-69
2023/03/26 03:05:51;;;;;;;1.90;1.70;;;7.10;99.90;;;;;;4982285;28;20501;-69
2023/03/26 03:08:21;;;;;;;3.97;1.77;;;7.10;99.90;;;;;;4985858;28;20553;-69
2023/03/26 03:10:56;;;;;;;4.80;1.70;;;7.10;99.90;;;;;;4978833;28;21029;-69
2023/03/26 03:13:24;;;;;;;4.27;1.70;;;7.10;99.90;;;;;;4970694;28;20503;-71
2023/03/26 03:15:54;;;;;;;3.80;1.53;;;7.00;99.90;;;;;;4983373;28;20552;-69
2023/03/26 03:18:22;;;;;;;6.47;1.43;;;6.90;99.90;;;;;;4976590;28;21003;-67
2023/03/26 03:20:50;;;;;;;2.83;1.63;;;6.90;99.90;;;;;;4977669;28;20903;-69
2023/03/26 03:23:18;;;;;;;4.20;2.13;;;6.90;99.90;;;;;;4980944;28;21014;-69
2023/03/26 03:25:46;;;;;;;3.50;1.47;;;6.80;99.90;;;;;;4987286;28;20469;-68
2023/03/26 03:28:17;;;;;;;2.30;1.50;;;6.80;99.90;;;;;;4985289;28;20469;-69
2023/03/26 03:30:45;;;;;;;3.10;1.80;;;6.80;99.90;;;;;;4979922;28;20493;-68
2023/03/26 03:33:15;;;;;;;4.97;1.80;;;6.80;99.90;;;;;;4980514;28;21032;-69
2023/03/26 03:35:44;;;;;;;5.33;1.70;;;6.70;99.90;;;;;;4983114;28;20484;-68
2023/03/26 03:38:12;;;;;;;6.90;1.70;;;6.70;99.90;;;;;;4975141;28;20608;-67
2023/03/26 03:40:40;;;;;;;6.00;1.80;;;6.70;99.90;;;;;;4976429;28;20504;-69
2023/03/26 03:43:08;;;;;;;5.40;2.00;;;6.70;99.90;;;;;;4971275;28;20871;-68
2023/03/26 03:45:36;;;;;;;4.27;1.50;;;6.70;99.90;;;;;;4984111;28;20474;-69
2023/03/26 03:48:05;;;;;;;3.40;1.77;;;6.70;99.90;;;;;;4980973;28;20480;-68
2023/03/26 03:50:34;;;;;;;7.43;1.80;;;6.80;99.90;;;;;;4981401;28;20481;-70
2023/03/26 03:53:04;;;;;;;4.60;1.83;;;6.70;99.90;;;;;;4982031;28;20492;-68
2023/03/26 03:55:32;;;;;;;8.70;2.53;;;6.70;99.90;;;;;;4986185;28;20473;-69
2023/03/26 03:58:00;;;;;;;5.90;2.27;;;6.70;99.90;;;;;;4983660;28;20492;-68
2023/03/26 04:00:29;;;;;;;6.40;1.87;;;6.60;99.90;;;;;;4979819;28;20501;-69
2023/03/26 04:02:57;;;;;;;5.30;1.53;;;6.60;99.90;;;;;;4980838;28;20584;-69
2023/03/26 04:05:25;;;;;;;3.70;2.10;;;6.60;99.90;;;;;;4980166;28;20484;-68
2023/03/26 04:07:54;;;;;;;3.97;2.13;;;6.60;99.90;;;;;;4987074;28;20472;-69
2023/03/26 04:10:22;;;;;;;3.23;1.80;;;6.70;99.90;;;;;;4988818;28;20484;-69
2023/03/26 04:12:50;;;;;;;6.73;2.27;;;6.60;99.90;;;;;;4984893;28;20536;-69
2023/03/26 04:15:18;;;;;;;7.10;2.17;;;6.60;99.90;;;;;;4979119;28;20500;-68
2023/03/26 04:17:46;;;;;;;6.27;2.00;;;6.60;99.90;;;;;;4986357;28;20469;-69
2023/03/26 04:20:14;;;;;;;5.77;2.30;;;6.60;99.90;;;;;;4981726;28;20520;-69
2023/03/26 04:22:43;;;;;;;12.73;3.37;;;6.60;99.90;;;;;;4982284;28;20591;-69
2023/03/26 04:25:14;;;;;;;7.57;2.57;;;6.60;99.90;;;;;;4982555;28;20472;-67
2023/03/26 04:27:42;;;;;;;8.13;3.37;;;6.60;99.90;;;;;;4986919;28;20477;-69
2023/03/26 04:30:14;;;;;;;4.13;1.90;;;6.60;99.90;;;;;;4976492;28;20564;-70
2023/03/26 04:32:43;;;;;;;7.50;2.47;;;6.50;99.90;;;;;;4985078;28;20484;-69
2023/03/26 04:35:15;;;;;;;9.60;2.63;;;6.50;99.90;;;;;;4978966;28;21016;-69
2023/03/26 04:37:44;;;;;;;7.40;2.50;;;6.50;99.90;;;;;;4988447;28;20531;-69
2023/03/26 04:40:17;;;;;;;5.77;2.20;;;6.50;99.90;;;;;;4982076;28;20496;-69
2023/03/26 04:42:45;;;;;;;7.30;2.13;;;6.50;99.90;;;;;;4987274;28;20919;-70
2023/03/26 04:45:14;;;;;;;6.90;2.40;;;6.50;99.90;;;;;;4986463;28;20496;-69
2023/03/26 04:47:42;;;;;;;7.97;2.30;;;6.40;99.90;;;;;;4989463;28;20476;-70
2023/03/26 04:50:11;;;;;;;5.87;2.00;;;6.50;99.90;;;;;;4988613;28;20527;-69
2023/03/26 04:52:40;;;;;;;6.33;2.40;;;6.50;99.90;;;;;;4982192;28;20491;-71
2023/03/26 04:55:21;;;;;;;5.70;2.27;;;6.40;99.90;;;;;;4985959;28;20466;-69
2023/03/26 04:57:54;;;;;;;6.47;2.40;;;6.40;99.90;;;;;;4991635;28;20473;-68
2023/03/26 05:00:23;;;;;;;5.33;1.80;;;6.30;99.90;;;;;;4976567;28;20500;-69
2023/03/26 05:02:52;;;;;;;4.13;1.80;;;6.30;99.90;;;;;;4978284;28;20496;-70
2023/03/26 05:05:20;;;;;;;4.17;1.80;;;6.20;99.90;;;;;;4984543;28;20472;-69
2023/03/26 05:07:48;;;;;;;4.10;2.00;;;6.20;99.90;;;;;;4978222;28;20473;-68
2023/03/26 05:10:19;;;;;;;6.73;1.90;;;6.10;99.90;;;;;;4969835;28;20504;-69
2023/03/26 05:12:47;;;;;;;4.00;2.40;;;6.10;99.90;;;;;;4977772;28;20481;-69
2023/03/26 05:15:15;;;;;;;5.10;2.20;;;6.00;99.90;;;;;;4975996;28;23932;-69
2023/03/26 05:17:43;;;;;;;4.80;1.93;;;6.00;99.90;;;;;;4981421;28;20612;-68
2023/03/26 05:20:19;;;;;;;6.10;2.07;;;6.00;99.90;;;;;;4973352;28;20497;-68
2023/03/26 05:22:48;;;;;;;10.23;2.03;;;5.90;99.90;;;;;;4976854;28;20615;-70
2023/03/26 05:25:17;;;;;;;6.03;2.20;;;5.90;99.90;;;;;;4980331;28;20465;-69
2023/03/26 05:27:46;;;;;;;3.73;1.73;;;5.90;99.90;;;;;;4975853;28;20482;-69
2023/03/26 05:30:16;;;;;;;2.70;2.00;;;5.90;99.90;;;;;;4974244;28;20507;-70
2023/03/26 05:32:46;;;;;;;4.10;2.13;;;6.00;99.90;;;;;;4985156;28;20496;-68
2023/03/26 05:35:15;;;;;;;3.53;1.90;;;6.00;99.90;;;;;;4978654;28;20492;-68
2023/03/26 05:37:44;;;;;;;4.27;1.70;;;6.00;99.90;;;;;;4975042;28;20473;-69
2023/03/26 05:40:15;;;;;;;2.73;1.70;;;6.00;99.90;;;;;;4979797;28;20497;-68
2023/03/26 05:42:45;;;;;;;4.00;2.23;;;6.00;99.90;;;;;;4977723;28;20484;-69
2023/03/26 05:45:14;;;;;;;5.23;1.77;;;6.00;99.90;;;;;;4980758;28;20473;-69
2023/03/26 05:47:43;;;;;;;7.20;2.10;;;6.00;99.90;;;;;;4975181;28;21964;-69
2023/03/26 05:50:11;;;;;;;3.57;1.60;;;6.00;99.90;;;;;;4974704;28;20607;-69
2023/03/26 05:52:39;;;;;;;4.20;1.53;;;6.00;99.90;;;;;;4973655;28;20499;-68
2023/03/26 05:55:08;;;;;;;4.43;1.90;;;6.00;99.90;;;;;;4973632;28;20469;-68
2023/03/26 05:57:36;;;;;;;4.40;1.77;;;6.00;99.90;;;;;;4975969;28;20852;-70
2023/03/26 06:00:09;;;;;;;5.43;1.90;;;6.00;99.90;;;;;;4969761;28;20516;-68
2023/03/26 06:02:37;;;;;;;4.83;1.80;;;6.10;99.90;;;;;;4976475;28;20508;-69
2023/03/26 06:05:06;;;;;;;4.93;1.53;;;6.10;99.90;;;;;;4972407;28;20497;-68
2023/03/26 06:07:34;;;;;;;3.17;1.80;;;6.10;99.90;;;;;;4971742;28;20472;-69
2023/03/26 06:10:03;;;;;;;7.83;2.23;;;6.10;99.90;;;;;;4971978;28;20489;-68
2023/03/26 06:12:31;;;;;;;7.17;2.00;;;6.10;99.90;;;;;;4967620;28;20556;-69
2023/03/26 06:14:59;;;;;;;3.57;2.03;;;6.10;99.90;;;;;;4975153;28;20480;-69
2023/03/26 06:17:28;;;;;;;6.47;1.70;;;6.10;99.90;;;;;;4985753;28;20477;-69
2023/03/26 06:19:57;;;;;;;5.53;1.80;;;6.10;99.90;;;;;;4987741;28;20547;-70
2023/03/26 06:22:25;;;;;;;5.40;1.90;;;6.10;99.90;;;;;;4989194;28;20864;-69
2023/03/26 06:24:53;;;;;;;5.27;1.77;;;6.10;99.90;;;;;;4988484;28;20596;-68
2023/03/26 06:27:21;;;;;;;4.77;2.10;;;6.10;99.90;;;;;;4990074;28;20476;-69
2023/03/26 06:29:49;;;;;;;5.07;1.70;;;6.20;99.90;;;;;;4976899;28;20899;-69
2023/03/26 06:32:17;;;;;;;5.13;2.30;;;6.20;99.90;;;;;;4986490;28;20641;-70
2023/03/26 06:34:48;;;;;;;4.83;1.90;;;6.20;99.90;;;;;;4982763;28;20476;-69
2023/03/26 06:37:17;;;;;;;5.80;2.13;;;6.30;99.90;;;;;;4968439;28;20527;-68
2023/03/26 06:39:45;;;;;;;7.17;2.23;;;6.30;99.90;;;;;;4966615;28;20512;-68
2023/03/26 06:42:13;;;;;;;5.33;2.00;;;6.30;99.90;;;;;;4965786;28;20500;-68
2023/03/26 06:44:41;;;;;;;4.33;1.97;;;6.30;99.90;;;;;;4969683;28;20501;-69
2023/03/26 06:47:08;;;;;;;7.50;2.60;;;6.40;99.90;;;;;;4982531;28;20473;-69
2023/03/26 06:49:36;;;;;;;6.10;2.30;;;6.40;99.90;;;;;;4980933;28;20493;-70
2023/03/26 06:52:06;;;;;;;9.20;2.30;;;6.40;99.90;;;;;;4977499;28;20489;-68
2023/03/26 06:54:34;;;;;;;6.77;2.23;;;6.40;99.90;;;;;;4980757;28;20851;-69
2023/03/26 06:57:02;;;;;;;6.10;2.10;;;6.50;99.90;;;;;;4980919;28;20472;-70
2023/03/26 06:59:30;;;;;;;5.30;2.53;;;6.40;99.90;;;;;;4979779;28;20560;-70
2023/03/26 07:01:58;;;;;;;9.53;4.00;;;6.40;99.90;;;;;;4970751;28;20489;-69
2023/03/26 07:04:26;;;;;;;5.50;2.17;;;6.50;99.90;;;;;;4952130;28;20505;-68
2023/03/26 07:06:54;;;;;;;7.13;2.30;;;6.50;99.90;;;;;;4957030;28;20918;-67
2023/03/26 07:09:25;;;;;;;7.00;2.30;;;6.50;99.90;;;;;;4952762;28;21426;-69
2023/03/26 07:11:53;;;;;;;6.53;2.77;;;6.60;99.90;;;;;;4954513;28;20563;-70
2023/03/26 07:14:21;;;;;;;5.83;2.03;;;6.50;99.90;;;;;;4953337;28;20480;-68
2023/03/26 07:16:49;;;;;;;6.43;2.13;;;6.50;99.90;;;;;;4960851;28;20481;-69
2023/03/26 07:19:17;;;;;;;7.03;2.00;;;6.60;99.90;;;;;;4949889;28;20791;-68
2023/03/26 07:21:46;;;;;;;7.53;2.10;;;6.60;99.90;;;;;;4949232;28;20480;-70
2023/03/26 07:24:15;;;;;;;7.40;2.33;;;6.50;99.90;;;;;;4956413;28;20507;-69
2023/03/26 07:26:55;;;;;;;8.07;2.80;;;6.50;99.90;;;;;;4963310;28;20770;-69
2023/03/26 07:29:33;;;;;;;4.40;1.93;;;6.50;99.90;;;;;;4940473;28;20535;-69
2023/03/26 07:32:11;;;;;;;5.13;2.07;;;6.50;99.90;;;;;;4947314;28;20484;-69
2023/03/26 07:34:48;;;;;;;5.67;2.47;;;6.50;99.90;;;;;;4942852;28;20488;-68
2023/03/26 07:37:27;;;;;;;6.03;2.27;;;6.50;99.90;;;;;;4943190;28;20524;-70
2023/03/26 07:39:59;;;;;;;8.83;2.50;;;6.50;99.90;;;;;;4928977;28;20547;-70
2023/03/26 07:42:38;;;;;;;4.70;3.23;;;6.60;99.90;;;;;;4947495;28;20489;-68
2023/03/26 07:45:19;;;;;;;7.13;2.50;;;6.60;99.90;;;;;;4938285;28;20496;-68
2023/03/26 07:47:52;;;;;;;8.50;2.53;;;6.60;99.90;;;;;;4969748;28;20501;-69
2023/03/26 07:50:22;;;;;;;7.23;2.50;;;6.60;99.90;;;;;;4959469;28;20523;-69
2023/03/26 07:52:51;;;;;;;10.93;2.97;;;6.60;99.90;;;;;;4979293;28;20508;-70
2023/03/26 07:55:20;;;;;;;6.20;2.27;;;6.60;99.90;;;;;;4972921;28;20485;-70
2023/03/26 07:58:00;;;;;;;8.57;2.90;;;6.70;99.90;;;;;;4970869;28;20505;-70
2023/03/26 08:00:34;;;;;;;10.03;2.53;;;6.70;99.90;;;;;;4977918;28;20485;-69
2023/03/26 08:03:27;;;;;;;9.17;3.10;;;6.80;99.90;;;;;;4977091;28;20584;-68
2023/03/26 08:06:05;;;;;;;5.70;2.23;;;6.80;99.90;;;;;;4963761;28;20893;-71
2023/03/26 08:08:44;;;;;;;7.57;2.80;;;6.80;99.90;;;;;;4968528;28;20485;-70
2023/03/26 08:11:24;;;;;;;4.60;2.43;;;6.80;99.90;;;;;;4971719;28;20496;-69
2023/03/26 08:14:04;;;;;;;5.37;2.20;;;6.80;99.90;;;;;;4974706;28;20499;-70
2023/03/26 08:16:37;;;;;;;6.60;3.33;;;6.90;99.90;;;;;;4983077;28;20497;-70
2023/03/26 08:19:15;;;;;;;10.70;2.60;;;6.90;99.90;;;;;;4985369;28;20496;-70
2023/03/26 08:21:47;;;;;;;8.90;2.70;;;6.90;99.90;;;;;;4976334;28;20516;-69
2023/03/26 08:24:22;;;;;;;6.57;2.10;;;6.90;99.90;;;;;;4981476;28;20503;-69
2023/03/26 08:26:57;;;;;;;8.60;2.60;;;6.90;99.90;;;;;;4978932;28;20595;-74
2023/03/26 08:29:36;;;;;;;7.73;2.53;;;6.90;99.90;;;;;;4975387;28;20503;-69
2023/03/26 08:32:09;;;;;;;10.30;3.17;;;6.90;99.90;;;;;;4982447;28;20481;-69
2023/03/26 08:34:37;;;;;;;11.23;2.87;;;7.00;99.90;;;;;;4978225;28;20497;-70
2023/03/26 08:37:05;;;;;;;8.73;2.57;;;7.10;99.90;;;;;;4973254;28;20865;-69
2023/03/26 08:39:33;;;;;;;11.40;3.07;;;7.10;99.90;;;;;;4978324;28;21048;-69
2023/03/26 08:42:31;;;;;;;10.83;3.17;;;7.10;99.90;;;;;;4979907;28;20478;-70
2023/03/26 08:45:42;;;;;;;10.73;2.90;;;7.10;99.90;;;;;;4970377;28;20504;-69
2023/03/26 08:49:02;;;;;;;10.70;3.07;;;7.20;99.90;;;;;;4962715;28;20501;-70
2023/03/26 08:52:11;;;;;;;9.10;2.50;;;7.30;99.90;;;;;;4886677;29;21038;-69
2023/03/26 08:55:15;;;;;;;9.80;2.73;;;7.20;99.90;;;;;;4888384;29;20507;-69
2023/03/26 08:58:28;;;;;;;7.77;2.83;;;7.30;99.90;;;;;;4981143;28;20477;-70
2023/03/26 09:01:21;;;;;;;11.23;2.93;;;7.30;99.90;;;;;;4988174;28;20489;-70
2023/03/26 09:04:23;;;;;;;11.37;3.67;;;7.50;99.90;;;;;;4987079;28;20493;-69
2023/03/26 09:07:18;;;;;;;7.90;2.97;;;7.60;99.90;;;;;;4980905;28;20504;-70
2023/03/26 09:10:19;;;;;;;11.33;3.63;;;7.70;99.90;;;;;;4975482;28;20496;-70
2023/03/26 09:13:28;;;;;;;7.50;2.73;;;7.80;99.90;;;;;;4961801;28;21090;-69
2023/03/26 09:16:21;;;;;;;6.10;2.90;;;7.80;99.90;;;;;;4977867;28;20489;-70
2023/03/26 09:19:28;;;;;;;8.20;3.03;;;7.80;99.90;;;;;;4971732;28;20497;-69
2023/03/26 09:22:23;;;;;;;4.40;2.33;;;7.90;99.90;;;;;;4968966;28;20469;-70
2023/03/26 09:25:38;;;;;;;6.83;2.80;;;8.00;99.90;;;;;;4975306;28;20505;-70
2023/03/26 09:28:33;;;;;;;9.20;2.50;;;8.00;99.90;;;;;;4971157;28;20567;-70
2023/03/26 09:31:14;;;;;;;5.40;2.80;;;8.10;99.90;;;;;;4977158;28;20843;-69
2023/03/26 09:33:58;;;;;;;11.17;2.50;;;8.00;99.90;;;;;;4968987;28;20997;-70
2023/03/26 09:36:54;;;;;;;7.80;2.50;;;8.00;99.90;;;;;;4986097;28;20966;-70
2023/03/26 09:39:35;;;;;;;7.20;2.50;;;8.00;99.90;;;;;;4984391;28;20492;-69
2023/03/26 09:42:13;;;;;;;9.93;2.67;;;8.00;99.90;;;;;;4986718;28;20472;-70
2023/03/26 09:45:09;;;;;;;7.10;2.53;;;8.10;99.90;;;;;;4987224;28;20473;-70
2023/03/26 09:47:57;;;;;;;7.00;2.50;;;8.20;99.90;;;;;;4984768;28;20891;-70
2023/03/26 09:50:37;;;;;;;8.00;2.90;;;8.30;99.90;;;;;;4981530;28;20504;-70
2023/03/26 09:53:47;;;;;;;6.03;2.83;;;8.30;99.90;;;;;;4977028;28;20584;-71
2023/03/26 09:56:29;;;;;;;7.33;2.53;;;8.20;99.90;;;;;;4979920;28;20523;-70
2023/03/26 09:59:32;;;;;;;8.47;2.33;;;8.10;99.90;;;;;;4980796;28;20861;-70
2023/03/26 10:02:14;;;;;;;5.37;2.93;;;8.30;99.90;;;;;;4959691;28;21645;-70
2023/03/26 10:05:04;;;;;;;7.20;1.90;;;8.40;99.90;;;;;;4958127;28;21036;-70
2023/03/26 10:07:54;;;;;;;7.40;2.80;;;8.50;99.90;;;;;;4950969;28;20484;-70
2023/03/26 10:10:31;;;;;;;8.20;2.67;;;8.60;99.90;;;;;;4957289;28;20505;-71
2023/03/26 10:13:08;;;;;;;7.80;2.47;;;8.60;99.90;;;;;;4961677;28;20511;-71
2023/03/26 10:15:59;;;;;;;7.27;2.27;;;8.60;99.90;;;;;;4959234;28;21481;-69
2023/03/26 10:18:37;;;;;;;8.60;2.67;;;8.70;99.90;;;;;;4969368;28;20504;-70
2023/03/26 10:21:12;;;;;;;8.77;2.87;;;8.70;99.90;;;;;;4969386;28;20500;-70
2023/03/26 10:23:55;;;;;;;7.80;2.50;;;8.70;99.90;;;;;;4967769;28;21247;-71
2023/03/26 10:26:44;;;;;;;9.60;3.07;;;8.80;99.90;;;;;;4973965;28;21022;-71
2023/03/26 10:30:13;;;;;;;5.47;2.57;;;8.80;99.90;;;;;;4957719;28;20492;-71
2023/03/26 10:32:51;;;;;;;7.20;3.00;;;8.80;99.90;;;;;;4976308;28;20497;-71
2023/03/26 10:35:29;;;;;;;8.47;2.20;;;8.90;99.90;;;;;;4969202;28;20497;-70
2023/03/26 10:38:11;;;;;;;8.80;2.60;;;9.00;99.90;;;;;;4974346;28;20512;-70
2023/03/26 10:40:47;;;;;;;11.13;3.07;;;9.20;99.90;;;;;;4968781;28;20511;-70
2023/03/26 10:43:50;;;;;;;11.20;2.80;;;9.20;99.90;;;;;;4964498;28;20499;-70
2023/03/26 10:47:02;;;;;;;9.93;2.60;;;9.10;99.90;;;;;;4958808;28;21023;-70
2023/03/26 10:49:48;;;;;;;10.43;2.53;;;9.10;99.90;;;;;;4963293;28;20496;-70
2023/03/26 10:52:20;;;;;;;10.20;2.73;;;9.10;99.90;;;;;;4964914;28;20488;-71
2023/03/26 10:54:55;;;;;;;6.70;2.93;;;9.10;99.90;;;;;;4966945;28;20866;-70
2023/03/26 10:57:33;;;;;;;7.90;2.80;;;9.10;99.90;;;;;;4964946;28;20493;-70
2023/03/26 11:00:13;;;;;;;9.83;2.50;;;9.10;99.90;;;;;;4958528;28;20493;-70
2023/03/26 11:02:53;;;;;;;10.07;2.50;;;9.00;99.90;;;;;;4975595;28;20877;-70
2023/03/26 11:05:32;;;;;;;6.30;2.20;;;9.00;99.90;;;;;;4959625;28;21631;-71
2023/03/26 11:08:05;;;;;;;9.37;2.30;;;9.10;99.90;;;;;;4969512;28;20507;-70
2023/03/26 11:10:47;;;;;;;6.77;2.20;;;9.30;99.90;;;;;;4986971;28;20516;-70
2023/03/26 11:13:25;;;;;;;8.27;2.83;;;9.60;99.90;;;;;;4970556;28;20489;-70
2023/03/26 11:16:02;;;;;;;7.23;2.90;;;9.70;99.90;;;;;;4987089;28;20484;-71
2023/03/26 11:18:39;;;;;;;7.47;2.57;;;9.70;99.90;;;;;;4982820;28;20495;-70
2023/03/26 11:21:12;;;;;;;6.03;2.10;;;9.70;99.90;;;;;;4988264;28;20489;-71
2023/03/26 11:23:59;;;;;;;6.80;2.00;;;9.70;99.90;;;;;;4977087;28;20481;-69
2023/03/26 11:26:44;;;;;;;5.07;2.30;;;9.80;99.90;;;;;;4972615;28;20547;-72
2023/03/26 11:29:34;;;;;;;8.20;2.20;;;9.80;99.90;;;;;;4968664;28;20501;-72
2023/03/26 11:32:06;;;;;;;9.83;3.10;;;10.00;99.90;;;;;;4979533;28;20982;-71
2023/03/26 11:34:39;;;;;;;5.60;2.27;;;10.20;99.90;;;;;;4987138;28;20509;-71
2023/03/26 11:37:15;;;;;;;7.50;2.20;;;10.40;99.90;;;;;;4982572;28;20473;-73
2023/03/26 11:39:49;;;;;;;5.07;1.87;;;10.60;99.90;;;;;;4977269;28;20503;-72
2023/03/26 11:42:21;;;;;;;7.43;2.77;;;10.80;99.90;;;;;;4969913;28;20525;-73
2023/03/26 11:44:54;;;;;;;6.57;2.30;;;10.90;99.90;;;;;;4961032;28;20497;-73
2023/03/26 11:47:28;;;;;;;6.97;2.30;;;10.90;99.90;;;;;;4971013;28;21143;-73
2023/03/26 11:50:00;;;;;;;9.13;2.40;;;10.90;99.90;;;;;;4975512;28;20567;-73
2023/03/26 11:52:28;;;;;;;6.37;2.83;;;10.90;99.90;;;;;;4970554;28;20571;-72
2023/03/26 11:54:58;;;;;;;5.63;2.30;;;10.90;99.90;;;;;;4972233;28;21025;-73
2023/03/26 11:57:31;;;;;;;6.17;2.70;;;11.00;99.90;;;;;;4970177;28;20489;-73
2023/03/26 12:00:14;;;;;;;4.40;2.17;;;11.20;99.90;;;;;;4958359;28;20497;-72
2023/03/26 12:02:43;;;;;;;8.77;3.00;;;11.10;99.90;;;;;;4952227;28;20500;-72
2023/03/26 12:05:19;;;;;;;8.83;2.67;;;11.30;99.90;;;;;;4965961;28;20584;-72
2023/03/26 12:07:51;;;;;;;5.57;2.60;;;11.20;99.90;;;;;;4943779;28;21160;-71
2023/03/26 12:10:29;;;;;;;5.00;2.17;;;11.30;99.90;;;;;;4960489;28;20547;-71
2023/03/26 12:13:01;;;;;;;6.90;3.10;;;11.40;99.90;;;;;;4973389;28;20485;-73
2023/03/26 12:15:30;;;;;;;7.63;2.60;;;11.50;99.90;;;;;;4975548;28;20477;-73
2023/03/26 12:18:17;;;;;;;8.17;2.50;;;11.50;99.90;;;;;;4974504;28;20486;-73
2023/03/26 12:20:47;;;;;;;8.10;2.70;;;11.60;99.90;;;;;;4953445;28;20496;-71
2023/03/26 12:23:36;;;;;;;5.30;2.30;;;11.70;99.90;;;;;;4953252;28;21031;-70
2023/03/26 12:26:11;;;;;;;5.90;2.23;;;11.70;99.90;;;;;;4940511;28;20489;-70
2023/03/26 12:28:45;;;;;;;4.53;2.30;;;11.90;99.90;;;;;;4954730;28;21040;-70
2023/03/26 12:31:17;;;;;;;5.40;2.27;;;12.10;99.90;;;;;;4956544;28;21088;-71
2023/03/26 12:33:51;;;;;;;5.00;2.40;;;12.30;99.90;;;;;;4961993;28;20477;-70
2023/03/26 12:36:25;;;;;;;7.90;2.40;;;12.40;99.90;;;;;;4972636;28;21395;-71
2023/03/26 12:38:53;;;;;;;6.97;2.40;;;12.60;99.90;;;;;;4970411;28;20864;-71
2023/03/26 12:41:41;;;;;;;7.00;2.77;;;12.80;99.90;;;;;;4974478;28;21130;-71
2023/03/26 12:44:33;;;;;;;4.87;2.30;;;13.00;99.90;;;;;;4971191;28;20944;-70
2023/03/26 12:47:25;;;;;;;5.40;2.60;;;13.20;99.90;;;;;;4963356;28;20511;-70
2023/03/26 12:50:14;;;;;;;5.47;2.20;;;13.40;98.30;;;;;;4969258;28;20535;-70
2023/03/26 12:52:56;;;;;;;6.90;2.83;;;13.70;91.10;;;;;;4966524;28;20599;-69
2023/03/26 12:55:41;;;;;;;4.20;2.07;;;14.00;87.70;;;;;;4974542;28;21806;-70
2023/03/26 12:58:52;;;;;;;9.63;2.27;;;14.30;75.70;;;;;;4968904;28;20504;-69
2023/03/26 13:01:31;;;;;;;5.57;2.63;;;14.90;76.20;;;;;;4968009;28;20489;-71
2023/03/26 13:04:16;;;;;;;4.60;2.00;;;15.70;72.80;;;;;;4963138;28;20975;-70
2023/03/26 13:06:49;;;;;;;5.17;2.00;;;16.60;61.40;;;;;;4969530;28;20511;-69
2023/03/26 13:09:50;;;;;;;4.90;2.07;;;17.40;57.50;;;;;;4962582;28;20523;-70
2023/03/26 13:12:33;;;;;;;5.83;2.00;;;18.80;57.10;;;;;;4966049;28;20655;-71
2023/03/26 13:15:17;;;;;;;6.50;2.67;;;20.00;51.70;;;;;;4972430;28;20982;-70
2023/03/26 13:17:58;;;;;;;5.50;2.30;;;21.00;52.00;;;;;;4972903;28;20564;-70
2023/03/26 13:20:31;;;;;;;6.30;2.77;;;22.30;47.30;;;;;;4960805;28;20972;-70
2023/03/26 13:23:07;;;;;;;4.37;2.10;;;23.60;45.40;;;;;;4976738;28;20543;-70
2023/03/26 13:25:43;;;;;;;6.63;2.43;;;24.50;41.90;;;;;;4973753;28;20568;-71
2023/03/26 13:28:21;;;;;;;6.47;2.17;;;24.80;41.70;;;;;;4966976;28;20500;-70
2023/03/26 13:30:57;;;;;;;3.83;2.33;;;25.20;37.90;;;;;;4960278;28;20496;-71
2023/03/26 13:33:43;;;;;;;4.57;2.27;;;25.40;39.30;;;;;;4975175;28;20523;-71
2023/03/26 13:36:17;;;;;;;5.03;2.23;;;24.90;39.70;;;;;;4981839;28;20488;-71
2023/03/26 13:39:12;;;;;;;5.13;2.30;;;24.10;37.60;;;;;;4979515;28;20484;-70